Time;durP1;ratioP1;P1;durP2;ratioP2;P2;SDS_P1;SDS_P2;PMS_P1;PMS_P2;Temp;Humidity;BMP_temperature;BMP_pressure;BME280_temperature;BME280_humidity;BME280_pressure;Samples;Min_cycle;Max_cycle;Signal;HPM_P1;HPM_P2
2022/11/01 04:03:27;;;;;;;7.93;6.03;;;12.90;99.90;;;;;;6238437;22;20421;-83
2022/11/01 04:05:52;;;;;;;6.07;5.50;;;12.90;99.90;;;;;;5029484;28;20473;-65
2022/11/01 04:08:18;;;;;;;8.60;5.80;;;12.90;99.90;;;;;;5034500;28;20404;-65
2022/11/01 04:10:43;;;;;;;7.77;7.03;;;13.00;99.90;;;;;;5035036;28;20180;-64
2022/11/01 04:13:09;;;;;;;6.30;5.20;;;13.00;99.90;;;;;;5032998;28;20185;-64
2022/11/01 04:21:05;;;;;;;3.33;3.13;;;13.30;99.90;;;;;;5014439;28;20407;-64
2022/11/01 04:23:32;;;;;;;5.70;4.43;;;13.50;99.90;;;;;;5013799;28;20412;-64
2022/11/01 04:25:57;;;;;;;4.57;3.87;;;13.70;99.90;;;;;;5014328;28;20496;-64
2022/11/01 04:28:23;;;;;;;5.33;3.10;;;13.90;99.90;;;;;;5014337;28;20496;-64
2022/11/01 04:30:49;;;;;;;9.23;3.53;;;14.20;99.90;;;;;;5014144;28;20170;-64
2022/11/01 04:33:14;;;;;;;3.23;2.80;;;14.40;99.90;;;;;;5024838;28;20268;-64
2022/11/01 04:35:40;;;;;;;3.30;2.90;;;14.60;99.90;;;;;;5033031;28;20211;-63
2022/11/01 04:38:06;;;;;;;6.00;3.50;;;14.80;99.90;;;;;;5033807;28;20208;-64
2022/11/01 04:40:33;;;;;;;5.00;2.93;;;15.00;99.90;;;;;;5033582;28;20205;-65
2022/11/01 04:42:58;;;;;;;2.40;2.20;;;15.20;99.90;;;;;;5019230;28;20937;-65
2022/11/01 04:45:24;;;;;;;2.50;2.30;;;15.30;99.90;;;;;;5027156;28;20444;-65
2022/11/01 04:48:12;;;;;;;2.70;2.50;;;15.40;99.90;;;;;;5033854;28;20182;-64
2022/11/01 04:50:38;;;;;;;3.33;2.93;;;15.60;99.90;;;;;;5033755;28;20245;-66
2022/11/01 04:53:03;;;;;;;1.93;1.83;;;15.60;99.90;;;;;;5033254;28;20421;-63
2022/11/01 04:55:29;;;;;;;4.37;1.80;;;15.70;99.90;;;;;;5033573;28;20404;-64
2022/11/01 04:57:56;;;;;;;1.50;1.40;;;15.90;99.90;;;;;;5032482;28;20216;-66
2022/11/01 05:00:24;;;;;;;3.17;1.50;;;16.00;99.90;;;;;;5025293;28;20669;-64
2022/11/01 05:02:50;;;;;;;5.80;2.90;;;16.20;99.90;;;;;;5013268;28;20467;-65
2022/11/01 05:05:16;;;;;;;2.10;1.80;;;16.40;99.90;;;;;;5019711;28;20463;-64
2022/11/01 05:07:42;;;;;;;2.20;1.83;;;16.50;99.90;;;;;;5033485;28;20404;-65
2022/11/01 05:10:08;;;;;;;3.40;1.73;;;16.60;99.90;;;;;;5032537;28;20429;-64
2022/11/01 05:12:34;;;;;;;4.40;1.90;;;16.70;99.90;;;;;;5032585;28;20191;-67
2022/11/01 05:15:00;;;;;;;2.97;1.80;;;16.70;99.90;;;;;;5032507;28;20453;-65
2022/11/01 05:17:25;;;;;;;2.00;1.73;;;16.70;99.90;;;;;;5033249;28;20179;-64
2022/11/01 05:19:51;;;;;;;2.17;1.70;;;16.70;99.90;;;;;;5032907;28;20214;-65
2022/11/01 05:22:16;;;;;;;1.67;1.57;;;16.70;99.90;;;;;;5033364;28;20199;-64
2022/11/01 05:24:42;;;;;;;3.90;1.63;;;16.80;99.90;;;;;;5016284;28;20207;-63
2022/11/01 05:27:08;;;;;;;1.80;1.47;;;16.90;99.90;;;;;;5014403;28;20258;-64
2022/11/01 05:29:33;;;;;;;5.13;1.90;;;16.90;99.90;;;;;;5028917;28;20287;-65
2022/11/01 05:31:59;;;;;;;2.17;1.97;;;16.90;99.90;;;;;;5017289;28;20188;-63
2022/11/01 05:34:25;;;;;;;8.60;1.70;;;16.90;99.90;;;;;;5012918;28;20299;-63
2022/11/01 05:36:50;;;;;;;3.20;1.80;;;16.90;99.90;;;;;;5013511;28;20182;-66
2022/11/01 05:39:16;;;;;;;2.47;1.70;;;16.90;99.90;;;;;;5024469;28;20719;-65
2022/11/01 05:41:42;;;;;;;1.70;1.60;;;16.90;99.90;;;;;;5032519;28;20223;-65
2022/11/01 05:44:07;;;;;;;2.20;1.50;;;16.80;99.90;;;;;;5032234;28;20196;-64
2022/11/01 05:46:33;;;;;;;1.30;1.27;;;16.80;99.90;;;;;;5022032;28;20244;-64
2022/11/01 05:48:59;;;;;;;1.97;1.40;;;16.80;99.90;;;;;;5013966;28;20176;-65
2022/11/01 05:51:24;;;;;;;1.47;1.27;;;16.80;99.90;;;;;;5013142;28;20962;-66
2022/11/01 05:53:50;;;;;;;0.90;0.90;;;16.80;99.90;;;;;;5012688;28;20220;-66
2022/11/01 05:56:17;;;;;;;4.27;1.53;;;16.80;99.90;;;;;;5020877;28;20216;-66
2022/11/01 05:58:43;;;;;;;1.00;1.00;;;16.80;99.90;;;;;;5033000;28;20223;-65
2022/11/01 06:01:09;;;;;;;2.00;1.07;;;16.70;99.90;;;;;;5032764;28;20438;-64
2022/11/01 06:03:35;;;;;;;4.33;1.60;;;16.70;99.90;;;;;;5031753;28;20454;-66
2022/11/01 06:06:01;;;;;;;1.83;1.50;;;16.70;99.90;;;;;;5032495;28;20486;-66
2022/11/01 06:08:26;;;;;;;1.40;1.30;;;16.70;99.90;;;;;;5032389;28;20405;-67
2022/11/01 06:10:52;;;;;;;2.10;2.00;;;16.60;99.90;;;;;;5027139;28;20191;-65
2022/11/01 06:13:18;;;;;;;1.90;1.20;;;16.60;99.90;;;;;;5013349;28;20185;-65
2022/11/01 06:15:44;;;;;;;2.17;2.07;;;16.60;99.90;;;;;;5013104;28;20176;-64
2022/11/01 06:18:10;;;;;;;1.90;1.60;;;16.60;99.90;;;;;;5012972;28;20172;-63
2022/11/01 06:20:35;;;;;;;5.10;1.60;;;16.50;99.90;;;;;;5012724;28;20207;-65
2022/11/01 06:23:08;;;;;;;1.13;1.03;;;16.50;99.90;;;;;;5019429;28;20421;-64
2022/11/01 06:25:35;;;;;;;2.10;1.20;;;16.50;99.90;;;;;;5018241;28;20450;-65
2022/11/01 06:28:01;;;;;;;2.30;1.80;;;16.50;99.90;;;;;;5016421;28;20407;-64
2022/11/01 06:30:26;;;;;;;2.03;1.37;;;16.50;99.90;;;;;;5016352;28;20879;-66
2022/11/01 06:32:57;;;;;;;1.60;1.30;;;16.40;99.90;;;;;;5028503;28;20206;-65
2022/11/01 06:35:22;;;;;;;1.83;1.07;;;16.50;99.90;;;;;;5023285;28;20245;-66
2022/11/01 06:37:48;;;;;;;1.30;1.20;;;16.40;99.90;;;;;;5016573;28;20553;-65
2022/11/01 06:40:14;;;;;;;1.80;1.60;;;16.40;99.90;;;;;;5027619;28;20548;-66
2022/11/01 06:42:39;;;;;;;4.63;1.63;;;16.40;99.90;;;;;;5023144;28;20187;-65
2022/11/01 06:45:05;;;;;;;1.60;1.50;;;16.40;99.90;;;;;;5015999;28;20192;-65
2022/11/01 06:47:31;;;;;;;5.63;1.40;;;16.40;99.90;;;;;;5016360;28;20635;-66
2022/11/01 06:49:56;;;;;;;1.30;1.20;;;16.30;99.90;;;;;;5018084;28;20502;-65
2022/11/01 06:52:22;;;;;;;1.57;1.37;;;16.30;99.90;;;;;;5044280;28;20186;-64
2022/11/01 06:54:47;;;;;;;1.27;1.23;;;16.30;99.90;;;;;;5034454;28;20667;-66
2022/11/01 06:57:13;;;;;;;1.27;1.17;;;16.30;99.90;;;;;;5035445;28;20233;-64
2022/11/01 06:59:39;;;;;;;1.20;1.10;;;16.30;99.90;;;;;;5035881;28;20261;-66
2022/11/01 07:02:06;;;;;;;2.07;1.40;;;16.30;99.90;;;;;;5034937;28;20174;-64
2022/11/01 07:04:32;;;;;;;1.10;1.10;;;16.20;99.90;;;;;;5035195;28;20233;-66
2022/11/01 07:06:57;;;;;;;2.60;1.30;;;16.20;99.90;;;;;;5033478;28;20402;-65
2022/11/01 07:09:23;;;;;;;1.27;1.10;;;16.10;99.90;;;;;;5015549;28;20188;-66
2022/11/01 07:11:48;;;;;;;1.03;1.03;;;16.10;99.90;;;;;;5015781;28;20194;-64
2022/11/01 07:14:14;;;;;;;1.60;1.20;;;16.00;99.90;;;;;;5033773;28;20202;-65
2022/11/01 07:16:39;;;;;;;1.73;1.63;;;15.90;99.90;;;;;;5034112;28;20207;-64
2022/11/01 07:19:05;;;;;;;2.10;1.17;;;15.90;99.90;;;;;;5033705;28;20793;-65
2022/11/01 07:21:31;;;;;;;1.40;1.40;;;15.90;99.90;;;;;;5022257;28;20233;-64
2022/11/01 07:23:57;;;;;;;1.43;1.00;;;15.90;99.90;;;;;;5014985;28;20846;-65
2022/11/01 07:26:22;;;;;;;1.37;1.10;;;15.90;99.90;;;;;;5027148;28;20183;-66
2022/11/01 07:28:48;;;;;;;1.00;1.00;;;15.90;99.90;;;;;;5015430;28;20229;-65
2022/11/01 07:31:13;;;;;;;0.93;0.93;;;15.90;99.90;;;;;;5021582;28;20645;-65
2022/11/01 07:33:39;;;;;;;1.60;1.10;;;16.00;99.90;;;;;;5016903;28;20202;-65
2022/11/01 07:36:05;;;;;;;2.00;1.47;;;16.00;99.90;;;;;;5034049;28;20825;-64
2022/11/01 07:38:31;;;;;;;1.10;1.00;;;16.10;99.90;;;;;;5032456;28;20183;-66
2022/11/01 07:40:57;;;;;;;1.97;1.20;;;16.10;99.90;;;;;;5034823;28;20754;-65
2022/11/01 07:43:22;;;;;;;2.50;1.87;;;16.20;99.90;;;;;;5034173;28;20185;-64
2022/11/01 07:45:48;;;;;;;1.27;1.17;;;16.20;99.90;;;;;;5034764;28;20207;-65
2022/11/01 07:48:17;;;;;;;1.03;1.03;;;16.20;99.90;;;;;;5034620;28;20181;-66
2022/11/01 07:50:43;;;;;;;1.30;1.20;;;16.30;99.90;;;;;;5033881;28;20432;-65
2022/11/01 07:53:17;;;;;;;2.40;1.90;;;16.30;99.90;;;;;;5034308;28;20801;-64
2022/11/01 07:55:43;;;;;;;1.50;0.83;;;16.40;99.90;;;;;;5033126;28;20563;-64
2022/11/01 07:58:10;;;;;;;0.97;0.97;;;16.40;99.90;;;;;;5034481;28;20406;-65
2022/11/01 08:00:36;;;;;;;1.20;1.10;;;16.40;99.90;;;;;;5034384;28;20470;-66
2022/11/01 08:03:03;;;;;;;1.63;1.00;;;16.50;99.90;;;;;;5034039;28;20431;-66
2022/11/01 08:05:31;;;;;;;1.30;1.03;;;16.50;99.90;;;;;;5014804;28;20468;-64
2022/11/01 08:07:57;;;;;;;0.93;0.90;;;16.50;99.90;;;;;;5014413;28;20414;-64
2022/11/01 08:10:24;;;;;;;1.07;0.90;;;16.60;99.90;;;;;;5014471;28;20420;-66
2022/11/01 08:12:49;;;;;;;1.80;1.10;;;16.70;99.90;;;;;;5014114;28;20416;-64
2022/11/01 08:15:15;;;;;;;1.17;0.90;;;16.80;99.90;;;;;;5014235;28;20440;-64
2022/11/01 08:17:40;;;;;;;2.47;2.27;;;16.90;99.90;;;;;;5030341;28;20191;-66
2022/11/01 08:20:07;;;;;;;1.90;1.40;;;16.90;99.90;;;;;;5033938;28;20304;-65
2022/11/01 08:22:33;;;;;;;1.20;0.90;;;17.10;99.90;;;;;;5025141;28;20174;-66
2022/11/01 08:24:58;;;;;;;1.33;0.67;;;17.20;99.90;;;;;;5022539;28;20788;-66
2022/11/01 08:27:24;;;;;;;0.80;0.70;;;17.30;99.90;;;;;;5019742;28;20185;-64
2022/11/01 08:29:50;;;;;;;0.70;0.50;;;17.50;99.90;;;;;;5014877;28;20205;-64
2022/11/01 08:32:22;;;;;;;0.73;0.73;;;17.60;99.90;;;;;;5018171;28;20521;-66
2022/11/01 08:34:48;;;;;;;0.87;0.70;;;17.70;99.90;;;;;;5021939;28;20225;-66
2022/11/01 08:37:14;;;;;;;1.23;0.60;;;17.80;99.90;;;;;;5032632;28;20406;-64
2022/11/01 08:39:39;;;;;;;0.70;0.70;;;17.90;99.90;;;;;;5014540;28;20497;-66
2022/11/01 08:42:05;;;;;;;0.73;0.73;;;18.00;99.90;;;;;;5014085;28;20449;-64
2022/11/01 08:44:33;;;;;;;1.47;1.37;;;18.10;99.90;;;;;;5017843;28;20205;-65
2022/11/01 08:47:00;;;;;;;2.30;2.10;;;18.20;99.90;;;;;;5026924;28;20171;-67
2022/11/01 08:49:26;;;;;;;0.87;0.87;;;18.30;99.90;;;;;;5024080;28;20464;-65
2022/11/01 08:51:52;;;;;;;0.97;0.83;;;18.30;99.90;;;;;;5033687;28;20844;-63
2022/11/01 08:54:18;;;;;;;0.87;0.87;;;18.40;99.90;;;;;;5033246;28;20416;-65
2022/11/01 08:56:44;;;;;;;0.80;0.80;;;18.40;99.90;;;;;;5031761;28;20441;-65
2022/11/01 08:59:09;;;;;;;1.10;0.90;;;18.50;99.90;;;;;;5032539;28;20193;-65
2022/11/01 09:01:35;;;;;;;0.70;0.70;;;18.50;99.90;;;;;;5033199;28;20597;-67
2022/11/01 09:04:01;;;;;;;0.97;0.67;;;18.60;99.90;;;;;;5032270;28;20198;-64
2022/11/01 09:06:27;;;;;;;0.90;0.90;;;18.70;99.90;;;;;;5033274;28;20536;-65
2022/11/01 09:08:54;;;;;;;1.10;0.93;;;18.70;99.90;;;;;;5033560;28;20186;-65
2022/11/01 09:11:21;;;;;;;0.90;0.90;;;18.80;99.90;;;;;;5033266;28;20387;-66
2022/11/01 09:13:48;;;;;;;1.33;1.20;;;18.80;99.90;;;;;;5029733;28;20411;-66
2022/11/01 09:16:14;;;;;;;0.97;0.97;;;18.80;99.90;;;;;;5013169;28;20445;-66
2022/11/01 09:18:40;;;;;;;4.23;1.73;;;18.80;99.90;;;;;;5030141;28;20457;-66
2022/11/01 09:21:06;;;;;;;1.10;1.00;;;18.80;99.90;;;;;;5033322;28;20935;-65
2022/11/01 09:23:33;;;;;;;0.67;0.67;;;18.70;99.90;;;;;;5032673;28;20653;-66
2022/11/01 09:26:05;;;;;;;0.80;0.80;;;18.60;99.90;;;;;;5027992;28;20455;-67
2022/11/01 09:28:31;;;;;;;1.00;1.00;;;18.60;99.90;;;;;;5029456;28;20432;-65
2022/11/01 09:31:04;;;;;;;0.80;0.80;;;18.50;99.90;;;;;;5013515;28;20388;-66
2022/11/01 09:33:31;;;;;;;1.27;1.00;;;18.50;99.90;;;;;;5013224;28;20410;-65
2022/11/01 09:35:57;;;;;;;0.90;0.90;;;18.50;99.90;;;;;;5029821;28;20457;-64
2022/11/01 09:38:22;;;;;;;2.53;2.07;;;18.50;99.90;;;;;;5033227;28;20496;-65
2022/11/01 09:41:03;;;;;;;0.90;0.90;;;18.60;99.90;;;;;;5031932;28;20563;-66
2022/11/01 09:43:33;;;;;;;1.17;1.10;;;18.60;99.90;;;;;;5015703;28;20174;-64
2022/11/01 09:46:01;;;;;;;0.70;0.70;;;18.90;99.90;;;;;;5031089;28;20563;-66
2022/11/01 09:48:29;;;;;;;1.00;0.90;;;19.10;99.90;;;;;;5032951;28;20409;-66
2022/11/01 09:50:55;;;;;;;0.87;0.67;;;19.40;99.90;;;;;;5032814;28;20406;-64
2022/11/01 09:53:25;;;;;;;0.80;0.80;;;19.60;99.90;;;;;;5025192;28;20444;-66
2022/11/01 09:55:57;;;;;;;0.80;0.70;;;20.20;99.90;;;;;;5013130;28;20175;-65
2022/11/01 09:58:37;;;;;;;0.83;0.63;;;21.00;99.90;;;;;;5029225;28;20417;-65
2022/11/01 10:01:27;;;;;;;0.77;0.70;;;21.90;99.90;;;;;;5034144;28;20397;-64
2022/11/01 10:04:10;;;;;;;0.97;0.93;;;22.80;99.90;;;;;;5016830;28;20528;-66
2022/11/01 10:06:42;;;;;;;1.63;1.37;;;23.50;99.90;;;;;;5035626;28;20423;-65
2022/11/01 10:09:28;;;;;;;0.50;0.50;;;23.90;99.90;;;;;;5030469;28;20419;-67
2022/11/01 10:12:03;;;;;;;0.60;0.60;;;24.30;99.40;;;;;;5018842;28;20400;-62
2022/11/01 10:14:46;;;;;;;0.63;0.63;;;24.60;98.80;;;;;;5016109;28;20425;-64
2022/11/01 10:17:19;;;;;;;0.70;0.70;;;24.50;97.60;;;;;;5035690;28;20416;-63
2022/11/01 10:19:49;;;;;;;0.70;0.70;;;24.20;98.00;;;;;;5036559;28;20863;-64
2022/11/01 10:22:17;;;;;;;1.00;0.97;;;23.80;97.80;;;;;;5036315;28;20743;-64
2022/11/01 10:24:46;;;;;;;0.87;0.87;;;23.60;98.00;;;;;;5035211;28;20431;-65
2022/11/01 10:27:57;;;;;;;0.70;0.70;;;23.30;98.30;;;;;;5024813;28;20425;-64
2022/11/01 10:30:23;;;;;;;1.27;1.27;;;22.90;99.30;;;;;;5013114;28;20451;-65
2022/11/01 10:32:52;;;;;;;0.80;0.80;;;22.60;99.90;;;;;;5016086;28;20425;-64
2022/11/01 10:35:22;;;;;;;0.57;0.57;;;22.50;99.90;;;;;;5016419;28;20412;-65
2022/11/01 10:38:03;;;;;;;0.83;0.83;;;22.60;99.90;;;;;;5016543;28;20389;-64
2022/11/01 10:40:36;;;;;;;0.70;0.70;;;22.60;99.90;;;;;;5025347;28;20618;-64
2022/11/01 10:43:12;;;;;;;0.80;0.73;;;22.60;99.90;;;;;;5035905;28;20479;-65
2022/11/01 10:45:39;;;;;;;0.73;0.70;;;22.50;99.90;;;;;;5035897;28;20565;-66
2022/11/01 10:48:04;;;;;;;0.83;0.83;;;22.40;99.90;;;;;;5019523;28;20475;-64
2022/11/01 10:50:30;;;;;;;0.70;0.70;;;22.50;99.90;;;;;;5015990;28;20475;-64
2022/11/01 10:53:01;;;;;;;1.00;1.00;;;22.50;99.90;;;;;;5020949;28;20672;-65
2022/11/01 10:55:42;;;;;;;0.70;0.70;;;22.50;99.90;;;;;;5023979;28;20314;-65
2022/11/01 10:58:27;;;;;;;3.50;1.10;;;22.50;99.90;;;;;;5004805;28;20494;-64
2022/11/01 11:00:52;;;;;;;1.00;1.00;;;22.50;99.90;;;;;;5035731;28;20383;-65
2022/11/01 11:03:24;;;;;;;0.83;0.83;;;22.50;99.90;;;;;;5035076;28;20491;-64
2022/11/01 11:05:53;;;;;;;2.27;0.80;;;22.30;99.90;;;;;;5035227;28;20194;-65
2022/11/01 11:08:23;;;;;;;2.10;1.80;;;22.10;99.90;;;;;;5033187;28;20867;-66
2022/11/01 11:10:49;;;;;;;0.77;0.70;;;21.90;99.90;;;;;;5031223;28;20507;-64
2022/11/01 11:13:21;;;;;;;1.37;0.67;;;21.70;99.90;;;;;;5033758;28;20405;-63
2022/11/01 11:16:01;;;;;;;2.93;2.70;;;21.60;99.90;;;;;;5035382;28;20371;-64
2022/11/01 11:18:30;;;;;;;0.73;0.73;;;21.40;99.90;;;;;;5035233;28;20408;-64
2022/11/01 11:21:04;;;;;;;4.63;0.80;;;21.40;99.90;;;;;;5017344;28;20411;-65
2022/11/01 11:23:33;;;;;;;2.73;0.90;;;21.30;99.90;;;;;;5034759;28;20360;-63
2022/11/01 11:26:15;;;;;;;1.10;1.00;;;21.40;99.90;;;;;;5015631;28;20433;-65
2022/11/01 11:28:47;;;;;;;0.93;0.93;;;21.40;99.90;;;;;;5018951;28;20910;-65
2022/11/01 11:31:29;;;;;;;1.20;1.20;;;21.30;99.90;;;;;;5025377;28;20432;-63
2022/11/01 11:34:21;;;;;;;2.10;1.90;;;21.30;99.90;;;;;;5034719;28;20751;-65
2022/11/01 11:36:52;;;;;;;1.53;1.43;;;21.30;99.90;;;;;;5032824;28;20409;-65
2022/11/01 11:39:30;;;;;;;2.17;2.00;;;21.30;99.90;;;;;;5033111;28;20942;-64
2022/11/01 11:42:19;;;;;;;2.03;1.90;;;21.30;99.90;;;;;;5033311;28;20746;-63
2022/11/01 11:44:51;;;;;;;1.40;1.30;;;21.30;99.90;;;;;;5027346;28;20452;-64
2022/11/01 11:47:24;;;;;;;1.13;1.03;;;21.30;99.90;;;;;;5034949;28;20848;-65
2022/11/01 11:49:53;;;;;;;0.90;0.90;;;21.30;99.90;;;;;;5033040;28;20400;-64
2022/11/01 11:52:33;;;;;;;1.77;0.70;;;21.40;99.90;;;;;;5029579;28;20423;-66
2022/11/01 11:54:59;;;;;;;1.00;0.90;;;21.50;99.90;;;;;;5027019;28;20457;-67
2022/11/01 11:57:28;;;;;;;1.10;1.00;;;21.50;99.90;;;;;;5033209;28;20383;-62
2022/11/01 12:00:05;;;;;;;0.70;0.70;;;21.60;99.90;;;;;;5017332;28;20210;-65
2022/11/01 12:02:39;;;;;;;0.87;0.87;;;21.70;99.90;;;;;;5034374;28;20452;-64
2022/11/01 12:05:08;;;;;;;0.60;0.60;;;21.60;99.90;;;;;;5029001;28;20489;-66
2022/11/01 12:07:33;;;;;;;2.13;0.83;;;21.50;99.90;;;;;;5034002;28;20486;-63
2022/11/01 12:10:02;;;;;;;0.70;0.70;;;21.40;99.90;;;;;;5031714;28;20890;-66
2022/11/01 12:12:31;;;;;;;2.43;1.53;;;21.20;99.80;;;;;;5020725;28;20194;-65
2022/11/01 12:14:58;;;;;;;2.50;0.97;;;21.00;99.90;;;;;;5033914;28;20435;-65
2022/11/01 12:17:44;;;;;;;2.10;1.70;;;20.80;99.90;;;;;;5034254;28;20478;-65
2022/11/01 12:20:23;;;;;;;1.53;1.07;;;20.60;99.90;;;;;;5020940;28;20817;-65
2022/11/01 12:22:59;;;;;;;1.07;1.03;;;20.20;99.90;;;;;;5021366;28;20430;-63
2022/11/01 12:25:24;;;;;;;1.20;1.10;;;19.90;99.90;;;;;;5014241;28;20392;-64
2022/11/01 12:27:57;;;;;;;1.60;1.20;;;19.70;99.90;;;;;;5014399;28;20408;-65
2022/11/01 12:30:24;;;;;;;1.03;1.03;;;19.40;99.90;;;;;;5022133;28;20225;-65
2022/11/01 12:33:26;;;;;;;2.17;1.20;;;19.20;99.90;;;;;;5033584;28;20413;-65
2022/11/01 12:35:53;;;;;;;2.50;1.47;;;19.00;99.90;;;;;;4985241;28;20446;-66
2022/11/01 12:38:34;;;;;;;0.90;0.90;;;18.70;99.90;;;;;;5017259;28;20455;-62
2022/11/01 12:41:22;;;;;;;2.97;1.00;;;18.50;99.90;;;;;;5015140;28;20403;-64
2022/11/01 12:44:02;;;;;;;3.10;1.13;;;18.40;99.90;;;;;;5023903;28;20429;-65
2022/11/01 12:46:33;;;;;;;1.67;1.57;;;18.30;99.90;;;;;;5033659;28;20820;-65
2022/11/01 12:49:28;;;;;;;2.17;1.67;;;18.20;99.90;;;;;;5033130;28;20496;-64
2022/11/01 12:52:00;;;;;;;2.70;1.10;;;18.00;99.90;;;;;;5028062;28;20487;-65
2022/11/01 12:54:45;;;;;;;2.30;1.27;;;17.90;99.90;;;;;;5013393;28;20760;-65
2022/11/01 12:57:14;;;;;;;5.30;1.00;;;17.70;99.90;;;;;;5014266;28;20394;-63
2022/11/01 12:59:40;;;;;;;1.47;0.90;;;17.70;99.90;;;;;;5020916;28;20450;-66
2022/11/01 13:02:20;;;;;;;2.87;1.43;;;17.60;99.90;;;;;;5033601;28;20399;-61
2022/11/01 13:04:56;;;;;;;2.03;1.30;;;17.60;99.90;;;;;;5022883;28;20502;-63
2022/11/01 13:07:46;;;;;;;1.70;1.60;;;17.60;99.90;;;;;;5033506;28;20423;-64
2022/11/01 13:10:32;;;;;;;1.47;1.37;;;17.80;99.90;;;;;;5033578;28;20880;-63
2022/11/01 13:13:23;;;;;;;2.37;1.77;;;18.00;99.90;;;;;;5033064;28;20380;-65
2022/11/01 13:16:04;;;;;;;1.13;0.80;;;18.10;99.90;;;;;;5029229;28;20421;-68
2022/11/01 13:18:55;;;;;;;2.93;2.03;;;18.20;99.90;;;;;;5029656;28;20417;-64
2022/11/01 13:21:33;;;;;;;2.63;2.43;;;18.20;99.90;;;;;;5033404;28;20386;-63
2022/11/01 13:24:10;;;;;;;1.97;0.80;;;18.30;99.90;;;;;;5014876;28;20465;-63
2022/11/01 13:26:50;;;;;;;8.50;2.03;;;18.30;99.90;;;;;;5031361;28;20504;-66
2022/11/01 13:29:33;;;;;;;1.07;1.07;;;18.30;99.90;;;;;;5025274;28;20417;-63
2022/11/01 13:32:41;;;;;;;1.83;1.10;;;18.30;99.90;;;;;;5033394;28;20483;-63
2022/11/01 13:35:36;;;;;;;4.10;0.80;;;18.30;99.90;;;;;;5000614;28;20494;-64
2022/11/01 13:38:04;;;;;;;1.00;1.00;;;18.20;99.90;;;;;;5037274;28;20776;-64
2022/11/01 13:40:40;;;;;;;2.97;1.07;;;18.20;99.90;;;;;;5019077;28;20460;-64
2022/11/01 13:43:17;;;;;;;2.87;1.10;;;18.10;99.90;;;;;;5036864;28;20492;-66
2022/11/01 13:46:06;;;;;;;1.97;0.90;;;18.10;99.90;;;;;;5037220;28;20966;-62
2022/11/01 13:48:50;;;;;;;2.67;1.07;;;17.90;99.90;;;;;;5036255;28;20896;-64
2022/11/01 13:51:18;;;;;;;2.70;1.70;;;17.90;99.90;;;;;;5037238;28;20413;-65
2022/11/01 13:53:51;;;;;;;0.90;0.90;;;17.90;99.90;;;;;;5036273;28;20435;-64
2022/11/01 13:56:34;;;;;;;1.70;1.60;;;17.80;99.90;;;;;;5036897;28;20789;-64
2022/11/01 13:59:02;;;;;;;0.90;0.90;;;17.80;99.90;;;;;;5031383;28;20787;-63
2022/11/01 14:01:30;;;;;;;2.00;1.20;;;17.70;99.90;;;;;;5036643;28;20424;-64
2022/11/01 14:04:17;;;;;;;1.70;1.10;;;17.70;99.90;;;;;;5021827;28;20516;-66
2022/11/01 14:07:02;;;;;;;1.60;0.80;;;17.50;99.90;;;;;;5027020;28;20462;-66
2022/11/01 14:09:30;;;;;;;7.30;1.37;;;17.40;99.90;;;;;;5036626;28;20732;-64
2022/11/01 14:12:01;;;;;;;2.67;1.50;;;17.40;99.90;;;;;;5031773;28;20424;-66
2022/11/01 14:14:30;;;;;;;1.73;1.33;;;17.20;99.90;;;;;;5035283;28;20915;-65
2022/11/01 14:17:15;;;;;;;1.73;1.57;;;17.10;99.90;;;;;;5036423;28;20407;-65
2022/11/01 14:19:41;;;;;;;1.07;1.00;;;17.10;99.90;;;;;;5036364;28;20506;-66
2022/11/01 14:22:25;;;;;;;1.57;1.37;;;17.10;99.90;;;;;;5036334;28;20418;-65
2022/11/01 14:24:58;;;;;;;2.40;1.47;;;17.00;99.90;;;;;;5035760;28;20430;-65
2022/11/01 14:27:27;;;;;;;1.83;1.10;;;17.00;99.90;;;;;;5018360;28;20390;-64
2022/11/01 14:29:53;;;;;;;1.57;1.10;;;17.00;99.90;;;;;;5035153;28;20481;-65
2022/11/01 14:32:22;;;;;;;1.30;0.93;;;17.00;99.90;;;;;;5025689;28;20463;-65
2022/11/01 14:35:16;;;;;;;1.17;1.07;;;17.00;99.90;;;;;;5035501;28;20438;-64
2022/11/01 14:37:48;;;;;;;2.20;2.00;;;16.90;99.90;;;;;;5035914;28;20424;-65
2022/11/01 14:40:37;;;;;;;2.33;1.10;;;16.90;99.90;;;;;;5035926;28;20456;-66
2022/11/01 14:43:14;;;;;;;1.23;1.10;;;16.80;99.90;;;;;;5031045;28;20412;-66
2022/11/01 14:45:44;;;;;;;1.33;1.30;;;16.80;99.90;;;;;;5015966;28;20495;-65
2022/11/01 14:48:36;;;;;;;1.23;1.10;;;16.80;99.90;;;;;;4998383;28;20494;-65
2022/11/01 14:51:23;;;;;;;2.97;1.17;;;16.80;99.90;;;;;;5007504;28;20833;-65
2022/11/01 14:53:56;;;;;;;1.63;1.20;;;16.70;99.90;;;;;;5026842;28;21283;-65
2022/11/01 14:56:31;;;;;;;1.20;1.20;;;16.80;99.90;;;;;;5034090;28;20373;-65
2022/11/01 14:59:18;;;;;;;2.93;1.20;;;16.70;99.90;;;;;;5035098;28;20454;-65
2022/11/01 15:01:46;;;;;;;2.80;1.17;;;16.70;99.90;;;;;;5035692;28;20484;-63
2022/11/01 15:04:20;;;;;;;1.23;1.13;;;16.60;99.90;;;;;;5019492;28;20808;-64
2022/11/01 15:06:47;;;;;;;1.60;1.30;;;16.50;99.90;;;;;;5020992;28;20824;-65
2022/11/01 15:09:19;;;;;;;1.47;1.37;;;16.50;99.90;;;;;;5035589;28;20395;-67
2022/11/01 15:11:45;;;;;;;3.57;1.47;;;16.50;99.90;;;;;;5035365;28;20406;-64
2022/11/01 15:14:17;;;;;;;1.40;1.30;;;16.40;99.90;;;;;;5034792;28;20476;-64
2022/11/01 15:16:43;;;;;;;1.50;1.23;;;16.40;99.90;;;;;;5035365;28;20386;-65
2022/11/01 15:19:26;;;;;;;0.90;0.90;;;16.40;99.90;;;;;;5034446;28;20449;-65
2022/11/01 15:21:53;;;;;;;1.60;1.13;;;16.30;99.90;;;;;;5035138;28;20905;-64
2022/11/01 15:24:22;;;;;;;2.60;1.23;;;16.20;99.90;;;;;;5034843;28;20842;-64
2022/11/01 15:26:48;;;;;;;9.73;1.30;;;16.10;99.90;;;;;;5035079;28;20437;-64
2022/11/01 15:29:17;;;;;;;1.70;0.97;;;16.10;99.90;;;;;;5035138;28;20380;-64
2022/11/01 15:32:04;;;;;;;1.90;1.50;;;16.00;99.90;;;;;;5034034;28;20418;-63
2022/11/01 15:34:33;;;;;;;4.53;1.40;;;15.90;99.90;;;;;;5014835;28;20429;-64
2022/11/01 15:37:17;;;;;;;5.07;1.90;;;15.90;99.90;;;;;;5015261;28;20407;-64
2022/11/01 15:39:42;;;;;;;2.40;1.30;;;15.80;99.90;;;;;;5015169;28;20543;-64
2022/11/01 15:42:18;;;;;;;1.57;1.47;;;15.70;99.90;;;;;;5015499;28;20540;-66
2022/11/01 15:44:44;;;;;;;1.50;1.23;;;15.60;99.90;;;;;;5014925;28;20654;-65
2022/11/01 15:47:21;;;;;;;1.70;1.10;;;15.50;99.90;;;;;;5029867;28;20555;-65
2022/11/01 15:49:46;;;;;;;2.90;1.80;;;15.40;99.90;;;;;;5035002;28;20186;-64
2022/11/01 15:52:21;;;;;;;1.60;1.50;;;15.40;99.90;;;;;;5034614;28;20401;-64
2022/11/01 15:55:22;;;;;;;2.20;1.13;;;15.30;99.90;;;;;;5034266;28;20205;-64
2022/11/01 15:58:16;;;;;;;2.87;1.50;;;15.30;99.90;;;;;;4973813;28;20757;-67
2022/11/01 16:00:55;;;;;;;1.10;1.10;;;15.20;99.90;;;;;;5029757;28;20874;-65
2022/11/01 16:03:24;;;;;;;1.93;1.70;;;15.20;99.90;;;;;;5019301;28;20420;-64
2022/11/01 16:05:55;;;;;;;6.13;2.03;;;15.10;99.90;;;;;;5034888;28;20428;-64
2022/11/01 16:08:35;;;;;;;3.30;1.43;;;15.10;99.90;;;;;;5035019;28;20405;-66
2022/11/01 16:11:01;;;;;;;3.03;2.10;;;15.00;99.90;;;;;;5016827;28;20407;-65
2022/11/01 16:13:29;;;;;;;2.60;1.50;;;15.00;99.90;;;;;;5034101;28;20376;-65
2022/11/01 16:15:58;;;;;;;2.90;1.90;;;14.90;99.90;;;;;;5015801;28;20421;-63
2022/11/01 16:18:24;;;;;;;6.30;2.50;;;14.90;99.90;;;;;;5034253;28;20375;-66
2022/11/01 16:21:19;;;;;;;2.93;1.43;;;14.80;99.90;;;;;;5033822;28;20923;-65
2022/11/01 16:24:02;;;;;;;4.00;2.03;;;14.70;99.90;;;;;;5033580;28;20399;-64
2022/11/01 16:26:28;;;;;;;1.97;1.77;;;14.60;99.90;;;;;;5033591;28;20932;-63
2022/11/01 16:28:54;;;;;;;5.40;1.80;;;14.50;99.90;;;;;;5033705;28;20515;-64
2022/11/01 16:31:27;;;;;;;2.47;1.70;;;14.50;99.90;;;;;;5033984;28;20917;-65
2022/11/01 16:33:54;;;;;;;2.50;1.47;;;14.40;99.90;;;;;;5033385;28;20432;-64
2022/11/01 16:36:19;;;;;;;1.63;1.53;;;14.30;99.90;;;;;;5016429;28;20478;-62
2022/11/01 16:38:46;;;;;;;5.80;2.30;;;14.20;99.90;;;;;;5034073;28;20491;-64
2022/11/01 16:41:19;;;;;;;3.87;2.37;;;14.10;99.90;;;;;;5033073;28;20689;-63
2022/11/01 16:43:46;;;;;;;4.10;2.17;;;14.10;99.90;;;;;;5033275;28;20432;-64
2022/11/01 16:46:12;;;;;;;2.77;2.40;;;14.00;99.90;;;;;;5033698;28;20440;-65
2022/11/01 16:48:56;;;;;;;5.27;3.17;;;14.00;99.90;;;;;;5033192;28;20420;-67
2022/11/01 16:51:27;;;;;;;5.87;2.93;;;13.90;99.90;;;;;;5030631;28;20176;-64
2022/11/01 16:53:59;;;;;;;6.23;3.77;;;13.80;99.90;;;;;;5018100;28;20548;-63
2022/11/01 16:56:28;;;;;;;4.03;3.10;;;13.70;99.90;;;;;;5015403;28;20558;-66
2022/11/01 16:58:59;;;;;;;2.50;2.30;;;13.70;99.90;;;;;;5033408;28;20615;-63
2022/11/01 17:01:28;;;;;;;2.40;2.20;;;13.70;99.90;;;;;;5032676;28;20428;-64
2022/11/01 17:03:56;;;;;;;2.77;2.40;;;13.60;99.90;;;;;;5020098;28;20454;-64
2022/11/01 17:06:24;;;;;;;14.40;4.20;;;13.60;99.90;;;;;;5021429;28;20441;-64
2022/11/01 17:08:49;;;;;;;5.40;4.40;;;13.60;99.90;;;;;;5029066;28;20464;-64
2022/11/01 17:11:15;;;;;;;5.60;4.23;;;13.60;99.90;;;;;;5014532;28;20433;-64
2022/11/01 17:13:41;;;;;;;6.50;4.60;;;13.60;99.90;;;;;;5030748;28;20211;-64
2022/11/01 17:16:18;;;;;;;6.73;4.90;;;13.50;99.90;;;;;;5015977;28;20505;-65